Time;durP1;ratioP1;P1;durP2;ratioP2;P2;SDS_P1;SDS_P2;PMS_P1;PMS_P2;Temp;Humidity;BMP_temperature;BMP_pressure;BME280_temperature;BME280_humidity;BME280_pressure;Samples;Min_cycle;Max_cycle;Signal;HPM_P1;HPM_P2
2023/04/18 00:01:38;;;;;;;12.70;7.90;;;8.10;99.90;;;7.26;100.00;101947.72;4137411;28;20077;-76
2023/04/18 00:03:39;;;;;;;10.85;7.25;;;8.00;99.90;;;7.16;100.00;101945.75;4137037;28;20058;-76
2023/04/18 00:05:42;;;;;;;10.27;7.65;;;8.00;99.90;;;7.12;100.00;101939.00;4135914;28;20109;-76
2023/04/18 00:07:44;;;;;;;11.52;8.15;;;7.90;99.90;;;7.02;100.00;101934.47;4131806;28;20085;-76
2023/04/18 00:09:45;;;;;;;14.18;8.45;;;7.80;99.90;;;6.96;100.00;101935.72;4128849;28;20449;-76
2023/04/18 00:11:45;;;;;;;11.73;8.63;;;7.80;99.90;;;6.94;100.00;101942.03;4128064;28;20061;-76
2023/04/18 00:13:46;;;;;;;13.63;7.93;;;7.70;99.90;;;6.88;100.00;101940.66;4136088;28;20502;-76
2023/04/18 00:15:47;;;;;;;11.60;8.52;;;7.60;99.90;;;6.84;100.00;101941.78;4137211;28;20030;-76
2023/04/18 00:17:48;;;;;;;10.32;7.80;;;7.60;99.90;;;6.79;100.00;101937.81;4127296;28;20045;-76
2023/04/18 00:19:50;;;;;;;12.88;8.65;;;7.60;99.90;;;6.75;100.00;101946.84;4120000;28;20035;-76
2023/04/18 00:21:52;;;;;;;12.50;8.63;;;7.50;99.90;;;6.71;100.00;101945.34;4120771;28;20035;-76
2023/04/18 00:23:53;;;;;;;12.75;8.18;;;7.50;99.90;;;6.61;100.00;101943.34;4120947;28;20077;-76
2023/04/18 00:25:53;;;;;;;11.65;8.02;;;7.40;99.90;;;6.60;100.00;101944.28;4121399;28;20027;-76
2023/04/18 00:27:54;;;;;;;9.77;7.45;;;7.40;99.90;;;6.57;100.00;101941.84;4135697;28;20034;-76
2023/04/18 00:29:55;;;;;;;11.60;7.65;;;7.40;99.90;;;6.51;100.00;101936.19;4135611;28;20023;-77
2023/04/18 00:31:57;;;;;;;14.20;8.50;;;7.30;99.90;;;6.46;100.00;101935.63;4135853;28;20022;-76
2023/04/18 00:33:57;;;;;;;13.20;8.52;;;7.30;99.90;;;6.40;100.00;101939.50;4128799;28;20032;-76
2023/04/18 00:35:58;;;;;;;12.57;9.00;;;7.20;99.90;;;6.37;100.00;101929.22;4135746;28;20038;-76
2023/04/18 00:37:59;;;;;;;13.10;9.25;;;7.20;99.90;;;6.34;100.00;101933.81;4120673;28;20031;-76
2023/04/18 00:40:00;;;;;;;13.15;9.02;;;7.10;99.90;;;6.34;100.00;101929.41;4125493;28;20030;-76
2023/04/18 00:42:04;;;;;;;13.23;9.05;;;7.10;99.90;;;6.34;100.00;101929.41;4135468;28;20026;-76
2023/04/18 00:44:05;;;;;;;13.98;9.48;;;7.10;99.90;;;6.28;100.00;101923.72;4125249;28;20076;-76
2023/04/18 00:46:06;;;;;;;12.63;9.35;;;7.10;99.90;;;6.31;100.00;101928.78;4123579;28;20039;-76
2023/04/18 00:48:09;;;;;;;15.27;10.05;;;7.00;99.90;;;6.31;100.00;101920.91;4136677;28;20030;-76
2023/04/18 00:50:11;;;;;;;14.35;9.55;;;7.00;99.90;;;6.28;100.00;101921.97;4135210;28;20023;-76
2023/04/18 00:52:12;;;;;;;14.98;10.00;;;7.00;99.90;;;6.23;100.00;101910.94;4130752;28;20583;-76
2023/04/18 00:54:13;;;;;;;18.15;11.50;;;7.00;99.90;;;6.26;100.00;101923.84;4135240;28;20089;-76
2023/04/18 00:56:14;;;;;;;16.58;10.75;;;7.00;99.90;;;6.24;100.00;101919.66;4125042;28;20026;-76
2023/04/18 00:58:15;;;;;;;18.60;11.95;;;7.00;99.90;;;6.22;100.00;101916.25;4135283;28;20034;-76
2023/04/18 01:00:16;;;;;;;17.90;10.88;;;7.00;99.90;;;6.21;100.00;101912.84;4130065;28;20030;-76
2023/04/18 01:02:17;;;;;;;16.63;10.88;;;7.00;99.90;;;6.18;100.00;101907.78;4136300;28;20034;-76
2023/04/18 01:04:18;;;;;;;16.85;10.48;;;6.90;99.90;;;6.18;100.00;101913.03;4135123;28;20118;-76
2023/04/18 01:06:19;;;;;;;19.55;12.32;;;6.90;99.90;;;6.16;100.00;101906.19;4127349;28;20053;-76
2023/04/18 01:08:20;;;;;;;16.13;10.90;;;6.90;99.90;;;6.13;100.00;101900.22;4135210;28;20033;-76
2023/04/18 01:10:21;;;;;;;17.15;11.35;;;6.90;99.90;;;6.11;100.00;101904.72;4132595;28;20552;-75
2023/04/18 01:12:22;;;;;;;13.77;10.15;;;6.90;99.90;;;6.08;100.00;101901.44;4135149;28;20027;-75
2023/04/18 01:14:23;;;;;;;15.32;10.45;;;6.90;99.90;;;6.05;100.00;101904.28;4118805;28;20427;-75
2023/04/18 01:16:25;;;;;;;19.05;11.25;;;6.80;99.90;;;5.98;100.00;101903.81;4130445;28;20037;-75
2023/04/18 01:18:26;;;;;;;18.10;11.13;;;6.70;99.90;;;5.94;100.00;101906.75;4135284;28;20036;-75
2023/04/18 01:20:27;;;;;;;18.90;11.73;;;6.70;99.90;;;5.95;100.00;101905.78;4131639;28;20539;-76
2023/04/18 01:22:31;;;;;;;16.20;10.93;;;6.70;99.90;;;5.89;100.00;101904.41;4125928;28;20031;-76
2023/04/18 01:24:32;;;;;;;20.90;13.50;;;6.70;99.90;;;5.94;100.00;101904.94;4129434;28;20511;-76
2023/04/18 01:26:33;;;;;;;21.92;13.32;;;6.70;99.90;;;5.98;100.00;101905.59;4134767;28;20037;-76
2023/04/18 01:28:36;;;;;;;24.38;14.60;;;6.70;99.90;;;6.01;100.00;101905.41;4135043;28;20034;-76
2023/04/18 01:30:37;;;;;;;24.10;15.52;;;6.80;99.90;;;6.02;100.00;101901.84;4126016;28;20038;-76
2023/04/18 01:32:38;;;;;;;22.15;14.45;;;6.80;99.90;;;6.06;100.00;101895.47;4135959;28;20027;-76
2023/04/18 01:34:39;;;;;;;21.35;14.50;;;6.80;99.90;;;6.05;100.00;101896.41;4135749;28;20026;-76
2023/04/18 01:36:39;;;;;;;27.45;16.00;;;6.80;99.90;;;6.10;100.00;101899.56;4136191;28;20062;-76
2023/04/18 01:38:40;;;;;;;21.17;14.25;;;6.90;99.90;;;6.12;100.00;101897.72;4136093;28;20030;-76
2023/04/18 01:40:41;;;;;;;24.13;15.60;;;6.80;99.90;;;6.13;100.00;101897.59;4151005;28;20029;-76
2023/04/18 01:42:42;;;;;;;25.70;15.70;;;6.90;99.90;;;6.19;100.00;101891.13;4135307;28;20050;-76
2023/04/18 01:44:43;;;;;;;23.33;15.10;;;6.90;99.90;;;6.15;100.00;101886.19;4119840;28;20047;-76
2023/04/18 01:46:44;;;;;;;26.05;15.55;;;6.90;99.90;;;6.16;100.00;101888.69;4119965;28;20027;-76
2023/04/18 01:48:45;;;;;;;25.00;15.10;;;6.90;99.90;;;6.16;100.00;101893.94;4128684;28;20019;-76
2023/04/18 01:50:45;;;;;;;24.85;16.88;;;6.90;99.90;;;6.17;100.00;101890.38;4131894;28;20030;-75
2023/04/18 01:52:46;;;;;;;27.77;17.17;;;6.90;99.90;;;6.17;100.00;101887.75;4123196;28;20022;-76
2023/04/18 01:54:47;;;;;;;26.88;17.65;;;6.90;99.90;;;6.20;100.00;101890.19;4134836;28;20490;-75
2023/04/18 01:56:48;;;;;;;26.05;17.15;;;6.90;99.90;;;6.23;100.00;101889.97;4129437;28;20034;-76
2023/04/18 01:58:49;;;;;;;27.60;16.30;;;7.00;99.90;;;6.23;100.00;101887.38;4135951;28;20030;-76
2023/04/18 02:00:55;;;;;;;26.05;17.27;;;7.00;99.90;;;6.23;100.00;101889.97;4134708;28;20026;-76
2023/04/18 02:02:58;;;;;;;29.23;18.02;;;7.00;99.90;;;6.24;100.00;101886.44;4126800;28;20042;-76
2023/04/18 02:04:59;;;;;;;30.35;18.42;;;7.00;99.90;;;6.26;100.00;101881.06;4135812;28;20114;-76
2023/04/18 02:07:00;;;;;;;29.20;18.33;;;7.00;99.90;;;6.25;100.00;101882.84;4121015;28;20495;-76
2023/04/18 02:09:00;;;;;;;31.00;19.08;;;7.00;99.90;;;6.26;100.00;101878.47;4123741;28;20030;-76
2023/04/18 02:11:01;;;;;;;31.92;19.30;;;7.00;99.90;;;6.26;100.00;101874.06;4135853;28;20041;-75
2023/04/18 02:13:02;;;;;;;30.67;18.92;;;7.00;99.90;;;6.29;100.00;101876.47;4134747;28;20058;-75
2023/04/18 02:15:04;;;;;;;32.03;18.20;;;7.10;99.90;;;6.27;100.00;101875.75;4133001;28;20027;-76
2023/04/18 02:17:05;;;;;;;31.17;19.63;;;7.10;99.90;;;6.25;100.00;101872.38;4135954;28;20077;-75
2023/04/18 02:19:06;;;;;;;31.17;17.73;;;7.10;99.90;;;6.23;100.00;101878.66;4134493;28;20080;-75
2023/04/18 02:21:08;;;;;;;34.10;20.10;;;7.00;99.90;;;6.25;100.00;101875.00;4128624;28;20022;-75
2023/04/18 02:23:09;;;;;;;29.60;18.17;;;7.00;99.90;;;6.22;100.00;101877.81;4131837;28;20094;-76
2023/04/18 02:25:10;;;;;;;34.17;19.98;;;7.00;99.90;;;6.19;100.00;101875.41;4135816;28;20023;-76
2023/04/18 02:27:12;;;;;;;35.03;20.65;;;7.00;99.90;;;6.21;100.00;101875.31;4134658;28;20030;-75
2023/04/18 02:29:13;;;;;;;33.60;20.38;;;7.00;99.90;;;6.16;100.00;101880.00;4128499;28;20521;-76
2023/04/18 02:31:14;;;;;;;35.70;19.73;;;7.00;99.90;;;6.17;100.00;101882.53;4131438;28;20034;-76
2023/04/18 02:33:15;;;;;;;37.03;20.33;;;6.90;99.90;;;6.18;100.00;101876.34;4150871;28;20490;-76
2023/04/18 02:35:16;;;;;;;38.85;21.90;;;6.90;99.90;;;6.22;100.00;101877.81;4135459;28;20030;-75
2023/04/18 02:37:17;;;;;;;36.35;22.52;;;7.00;99.90;;;6.24;100.00;101881.19;4134531;28;20035;-76
2023/04/18 02:39:18;;;;;;;36.47;20.58;;;7.00;99.90;;;6.21;100.00;101877.94;4134329;28;20037;-76
2023/04/18 02:41:19;;;;;;;38.90;22.25;;;7.00;99.90;;;6.19;100.00;101875.41;4134268;28;20034;-76
2023/04/18 02:43:20;;;;;;;40.42;22.92;;;7.00;99.90;;;6.18;100.00;101878.97;4136316;28;20038;-76
2023/04/18 02:45:21;;;;;;;37.42;21.95;;;6.90;99.90;;;6.13;100.00;101874.00;4138295;28;20117;-75
2023/04/18 02:47:22;;;;;;;37.35;22.05;;;7.00;99.90;;;6.15;100.00;101875.72;4137281;28;20065;-75
2023/04/18 02:49:23;;;;;;;38.50;23.02;;;6.90;99.90;;;6.12;100.00;101874.13;4137021;28;20101;-76
2023/04/18 02:51:23;;;;;;;38.00;23.58;;;6.90;99.90;;;6.07;100.00;101869.19;4137196;28;20022;-76
2023/04/18 02:53:24;;;;;;;37.78;22.45;;;6.90;99.90;;;6.11;100.00;101878.53;4137196;28;20482;-75
2023/04/18 02:55:25;;;;;;;37.13;22.05;;;6.90;99.90;;;6.07;100.00;101878.81;4138384;28;20023;-76
2023/04/18 02:57:26;;;;;;;43.55;25.55;;;6.80;99.90;;;6.06;100.00;101872.72;4138326;28;20042;-76
2023/04/18 02:59:27;;;;;;;39.00;23.52;;;6.90;99.90;;;6.05;100.00;101880.69;4138362;28;20038;-75
2023/04/18 03:01:28;;;;;;;40.83;23.85;;;6.80;99.90;;;6.04;100.00;101869.38;4138305;28;20026;-75
2023/04/18 03:03:29;;;;;;;41.45;24.35;;;6.80;99.90;;;6.01;100.00;101871.34;4136817;28;20026;-76
2023/04/18 03:05:30;;;;;;;44.40;25.88;;;6.80;99.90;;;6.03;100.00;101867.69;4134491;28;20046;-75
2023/04/18 03:07:30;;;;;;;46.80;26.98;;;6.80;99.90;;;6.02;100.00;101865.19;4124883;28;20022;-76
2023/04/18 03:09:31;;;;;;;41.67;24.77;;;6.80;99.90;;;6.00;100.00;101864.44;4138244;28;20026;-76
2023/04/18 03:11:32;;;;;;;47.00;26.20;;;6.80;99.90;;;5.98;100.00;101868.94;4136902;28;20106;-76
2023/04/18 03:13:34;;;;;;;47.42;25.58;;;6.70;99.90;;;5.99;100.00;101868.84;4135395;28;20034;-76
2023/04/18 03:15:34;;;;;;;51.53;29.05;;;6.80;99.90;;;5.99;100.00;101858.38;4138143;28;20026;-76
2023/04/18 03:17:35;;;;;;;50.45;28.40;;;6.80;99.90;;;5.99;100.00;101853.13;4136954;28;20030;-76
2023/04/18 03:19:36;;;;;;;53.00;29.25;;;6.80;99.90;;;6.01;100.00;101858.25;4130795;28;20032;-76
2023/04/18 03:21:37;;;;;;;47.05;26.88;;;6.80;99.90;;;6.02;100.00;101857.31;4136891;28;20418;-76
2023/04/18 03:23:38;;;;;;;46.30;28.35;;;6.80;99.90;;;5.94;100.00;101851.75;4124583;28;20065;-76
2023/04/18 03:25:39;;;;;;;47.58;28.23;;;6.80;99.90;;;5.94;100.00;101855.19;4136692;28;20062;-76
2023/04/18 03:27:41;;;;;;;47.85;28.23;;;6.70;99.90;;;5.92;100.00;101856.22;4136597;28;20019;-76
2023/04/18 03:29:42;;;;;;;51.15;30.23;;;6.70;99.90;;;5.96;100.00;101860.34;4136720;28;20029;-75
2023/04/18 03:31:43;;;;;;;46.97;26.17;;;6.70;99.90;;;5.93;100.00;101863.16;4137972;28;20026;-75
2023/04/18 03:33:44;;;;;;;52.42;30.77;;;6.70;99.90;;;5.91;100.00;101850.16;4136485;28;20034;-76
2023/04/18 03:35:45;;;;;;;51.22;29.85;;;6.70;99.90;;;5.92;100.00;101859.69;4136389;28;20034;-76
2023/04/18 03:37:46;;;;;;;47.30;27.58;;;6.70;99.90;;;5.93;100.00;101860.53;4136501;28;20080;-76
2023/04/18 03:39:47;;;;;;;53.25;29.70;;;6.70;99.90;;;5.89;100.00;101857.28;4136594;28;20476;-75
2023/04/18 03:41:48;;;;;;;56.72;31.10;;;6.70;99.90;;;5.92;100.00;101858.84;4126801;28;20502;-76
2023/04/18 03:43:49;;;;;;;58.40;32.92;;;6.70;99.90;;;5.91;100.00;101860.63;4136356;28;20061;-76
2023/04/18 03:45:51;;;;;;;50.38;28.48;;;6.70;99.90;;;5.87;100.00;101863.53;4137800;28;20069;-76
2023/04/18 03:47:52;;;;;;;54.50;30.88;;;6.70;99.90;;;5.81;100.00;101866.53;4137504;28;20030;-75
2023/04/18 03:49:53;;;;;;;49.22;30.13;;;6.70;99.90;;;5.74;100.00;101852.97;4137473;28;20557;-76
2023/04/18 03:51:54;;;;;;;51.35;29.50;;;6.60;99.90;;;5.71;100.00;101841.84;4136472;28;20082;-75
2023/04/18 03:53:55;;;;;;;49.13;29.15;;;6.60;99.90;;;5.70;100.00;101850.66;4133445;28;20037;-76
2023/04/18 03:55:56;;;;;;;52.60;29.80;;;6.60;99.90;;;5.70;100.00;101848.91;4136145;28;20380;-75
2023/04/18 03:57:58;;;;;;;55.30;30.52;;;6.50;99.90;;;5.74;100.00;101854.75;4125598;28;20563;-76
2023/04/18 03:59:58;;;;;;;59.63;32.38;;;6.50;99.90;;;5.71;100.00;101847.94;4130200;28;20034;-76
2023/04/18 04:01:59;;;;;;;64.35;35.40;;;6.50;99.90;;;5.71;100.00;101845.31;4137211;28;20471;-76
2023/04/18 04:04:01;;;;;;;59.80;32.80;;;6.50;99.90;;;5.71;100.00;101842.69;4136002;28;20023;-76
2023/04/18 04:06:03;;;;;;;60.45;34.03;;;6.50;99.90;;;5.66;100.00;101834.31;4125283;28;20544;-76
2023/04/18 04:08:04;;;;;;;62.25;33.10;;;6.60;99.90;;;5.76;100.00;101845.03;4128141;28;20026;-76
2023/04/18 04:10:05;;;;;;;62.28;35.35;;;6.50;99.90;;;5.77;100.00;101842.31;4137233;28;20033;-76
2023/04/18 04:12:06;;;;;;;64.47;34.13;;;6.50;99.90;;;5.77;100.00;101849.31;4137042;28;20030;-75
2023/04/18 04:14:07;;;;;;;70.63;35.20;;;6.60;99.90;;;5.77;100.00;101839.69;4136166;28;20030;-76
2023/04/18 04:16:08;;;;;;;68.50;35.58;;;6.60;99.90;;;5.77;100.00;101834.47;4128974;28;20041;-76
2023/04/18 04:18:09;;;;;;;64.40;34.70;;;6.60;99.90;;;5.80;100.00;101836.03;4125001;28;20089;-76
2023/04/18 04:20:10;;;;;;;63.80;36.10;;;6.60;99.90;;;5.75;100.00;101836.34;4134798;28;20479;-75
2023/04/18 04:22:11;;;;;;;65.63;36.05;;;6.60;99.90;;;5.76;100.00;101837.19;4135935;28;20030;-75
2023/04/18 04:24:12;;;;;;;56.33;33.17;;;6.60;99.90;;;5.72;100.00;101827.84;4128451;28;20034;-75
2023/04/18 04:26:16;;;;;;;59.55;33.00;;;6.50;99.90;;;5.67;100.00;101829.94;4136857;28;20041;-76
2023/04/18 04:28:16;;;;;;;67.78;36.42;;;6.50;99.90;;;5.67;100.00;101822.06;4136811;28;20108;-76
2023/04/18 04:30:17;;;;;;;67.82;33.90;;;6.50;99.90;;;5.71;100.00;101828.78;4135942;28;20057;-76
2023/04/18 04:32:19;;;;;;;68.32;37.17;;;6.50;99.90;;;5.68;100.00;101821.97;4126905;28;20430;-75
2023/04/18 04:34:20;;;;;;;68.68;34.80;;;6.50;99.90;;;5.68;100.00;101824.56;4136689;28;20027;-75
2023/04/18 04:36:23;;;;;;;65.13;37.92;;;6.50;99.90;;;5.69;100.00;101820.19;4135542;28;20026;-76
2023/04/18 04:38:24;;;;;;;66.05;35.20;;;6.50;99.90;;;5.67;100.00;101822.91;4116882;28;20556;-76
2023/04/18 04:40:25;;;;;;;71.28;37.72;;;6.50;99.90;;;5.65;100.00;101831.78;4127634;28;20107;-76
2023/04/18 04:42:27;;;;;;;69.60;37.75;;;6.40;99.90;;;5.62;100.00;101818.88;4136713;28;20034;-76
2023/04/18 04:44:28;;;;;;;75.35;38.65;;;6.50;99.90;;;5.64;100.00;101820.50;4121881;28;20058;-76
2023/04/18 04:46:29;;;;;;;71.78;38.38;;;6.50;99.90;;;5.65;100.00;101824.78;4135389;28;20073;-75
2023/04/18 04:48:30;;;;;;;71.93;39.25;;;6.40;99.90;;;5.63;100.00;101826.66;4120304;28;20022;-76
2023/04/18 04:50:37;;;;;;;79.90;39.88;;;6.50;99.90;;;5.63;100.00;101824.03;4130301;28;20038;-76
2023/04/18 04:52:39;;;;;;;69.25;36.30;;;6.40;99.90;;;5.61;100.00;101822.47;4134194;28;20022;-75
2023/04/18 04:54:39;;;;;;;74.30;37.40;;;6.40;99.90;;;5.62;100.00;101816.28;4136650;28;20026;-76
2023/04/18 04:56:40;;;;;;;79.18;39.33;;;6.50;99.90;;;5.62;100.00;101819.72;4136513;28;20034;-76
2023/04/18 04:58:41;;;;;;;78.55;40.63;;;6.40;99.90;;;5.61;100.00;101812.00;4135242;28;20026;-76
2023/04/18 05:00:42;;;;;;;78.13;38.35;;;6.40;99.90;;;5.65;100.00;101816.06;4122223;28;20487;-76
2023/04/18 05:02:43;;;;;;;78.82;38.78;;;6.40;99.90;;;5.65;100.00;101818.69;4119069;28;20494;-76
2023/04/18 05:04:44;;;;;;;81.18;39.38;;;6.40;99.90;;;5.63;100.00;101820.56;4118762;28;20038;-76
2023/04/18 05:06:45;;;;;;;76.28;38.33;;;6.40;99.90;;;5.63;100.00;101813.56;4129423;28;20041;-76
2023/04/18 05:08:50;;;;;;;80.55;38.85;;;6.50;99.90;;;5.59;100.00;101820.78;4133035;28;20034;-75
2023/04/18 05:10:50;;;;;;;80.57;40.55;;;6.50;99.90;;;5.53;100.00;101815.09;4136443;28;20030;-76
2023/04/18 05:12:51;;;;;;;76.75;40.50;;;6.40;99.90;;;5.62;100.00;101824.13;4151249;28;20034;-76
2023/04/18 05:14:52;;;;;;;84.57;39.65;;;6.40;99.90;;;5.61;100.00;101822.47;4135101;28;20562;-76
2023/04/18 05:16:54;;;;;;;77.70;40.05;;;6.40;99.90;;;5.61;100.00;101831.16;4132988;28;20038;-77
2023/04/18 05:18:55;;;;;;;85.30;42.13;;;6.40;99.90;;;5.67;100.00;101829.94;4124672;28;20026;-77
2023/04/18 05:20:56;;;;;;;83.60;41.35;;;6.40;99.90;;;5.65;100.00;101830.00;4128384;28;20046;-76
2023/04/18 05:22:57;;;;;;;84.85;42.38;;;6.50;99.90;;;5.68;100.00;101828.97;4120093;28;20440;-76
2023/04/18 05:24:58;;;;;;;83.47;41.15;;;6.50;99.90;;;5.62;100.00;101821.50;4120006;28;20123;-76
2023/04/18 05:26:58;;;;;;;74.30;39.53;;;6.50;99.90;;;5.64;100.00;101830.13;4122994;28;20034;-77
2023/04/18 05:28:59;;;;;;;83.72;41.22;;;6.40;99.90;;;5.69;100.00;101833.28;4125983;28;20035;-77
2023/04/18 05:31:00;;;;;;;85.10;39.65;;;6.40;99.90;;;5.69;100.00;101831.50;4136137;28;20023;-77
2023/04/18 05:33:01;;;;;;;88.72;44.35;;;6.50;99.90;;;5.72;100.00;101833.06;4136198;28;20022;-76
2023/04/18 05:35:02;;;;;;;86.57;44.28;;;6.50;99.90;;;5.72;100.00;101823.44;4134748;28;20018;-77
2023/04/18 05:37:03;;;;;;;85.20;43.17;;;6.50;99.90;;;5.74;100.00;101836.44;4134773;28;20041;-77
2023/04/18 05:39:04;;;;;;;87.63;40.80;;;6.50;99.90;;;5.77;100.00;101833.63;4134700;28;20018;-77
2023/04/18 05:41:05;;;;;;;87.35;42.42;;;6.50;99.90;;;5.79;100.00;101842.22;4133091;28;20375;-77
2023/04/18 05:43:06;;;;;;;89.65;45.05;;;6.60;99.90;;;5.80;100.00;101838.66;4134851;28;20042;-77
2023/04/18 05:45:07;;;;;;;92.65;44.22;;;6.60;99.90;;;5.84;100.00;101845.38;4135740;28;20469;-77
2023/04/18 05:47:08;;;;;;;86.88;42.22;;;6.60;99.90;;;5.92;100.00;101843.97;4134811;28;20042;-76
2023/04/18 05:49:09;;;;;;;87.70;43.17;;;6.60;99.90;;;5.97;100.00;101849.75;4132448;28;20046;-77
2023/04/18 05:51:10;;;;;;;87.78;42.67;;;6.70;99.90;;;5.95;100.00;101848.19;4135990;28;20029;-77
2023/04/18 05:53:11;;;;;;;84.88;43.72;;;6.70;99.90;;;5.99;100.00;101849.66;4134820;28;20037;-77
2023/04/18 05:55:12;;;;;;;90.63;44.45;;;6.70;99.90;;;5.99;100.00;101839.19;4121445;28;20023;-77
2023/04/18 05:57:13;;;;;;;84.60;42.42;;;6.80;99.90;;;6.03;100.00;101840.69;4130859;28;20027;-77
2023/04/18 05:59:13;;;;;;;88.15;45.30;;;6.80;99.90;;;6.12;100.00;101847.94;4134210;28;20097;-77
2023/04/18 06:01:15;;;;;;;88.90;44.88;;;6.80;99.90;;;6.15;100.00;101842.50;4134746;28;20030;-77
2023/04/18 06:03:15;;;;;;;91.22;43.08;;;6.90;99.90;;;6.21;100.00;101849.09;4128584;28;20027;-78
2023/04/18 06:05:16;;;;;;;94.80;45.33;;;6.90;99.90;;;6.27;100.00;101840.84;4134494;28;20049;-77
2023/04/18 06:07:17;;;;;;;82.78;41.63;;;7.00;99.90;;;6.35;100.00;101851.66;4119082;28;20050;-77
2023/04/18 06:09:18;;;;;;;82.60;42.03;;;7.00;99.90;;;6.45;100.00;101848.31;4119865;28;20054;-78
2023/04/18 06:11:20;;;;;;;85.28;43.72;;;7.20;99.90;;;6.56;100.00;101847.59;4119703;28;20035;-77
2023/04/18 06:13:21;;;;;;;82.50;42.95;;;7.20;99.90;;;6.65;100.00;101844.34;4134536;28;20524;-78
2023/04/18 06:15:22;;;;;;;77.25;41.38;;;7.30;99.90;;;6.72;100.00;101845.59;4131531;28;20102;-78
2023/04/18 06:17:22;;;;;;;79.40;41.95;;;7.40;99.90;;;6.81;100.00;101844.16;4118482;28;20502;-78
2023/04/18 06:19:23;;;;;;;77.72;40.90;;;7.50;99.90;;;6.87;100.00;101847.19;4130630;28;20033;-77
2023/04/18 06:21:25;;;;;;;80.00;41.42;;;7.50;99.90;;;6.91;100.00;101847.81;4137742;28;20026;-77
2023/04/18 06:23:26;;;;;;;78.63;40.92;;;7.60;99.90;;;6.94;100.00;101835.34;4136617;28;20028;-77
2023/04/18 06:25:27;;;;;;;72.55;39.78;;;7.70;99.90;;;7.03;100.00;101844.34;4137422;28;20530;-78
2023/04/18 06:27:28;;;;;;;76.20;40.40;;;7.70;99.90;;;7.05;100.00;101837.19;4138323;28;20042;-77
2023/04/18 06:29:31;;;;;;;81.07;40.92;;;7.70;99.90;;;7.09;100.00;101834.28;4138724;28;20494;-77
2023/04/18 06:31:32;;;;;;;82.88;42.03;;;7.80;99.90;;;7.12;100.00;101830.59;4138586;28;20026;-78
2023/04/18 06:33:34;;;;;;;77.32;41.70;;;7.80;99.90;;;7.16;100.00;101834.69;4137401;28;20026;-77
2023/04/18 06:35:35;;;;;;;75.32;39.53;;;7.90;99.90;;;7.29;100.00;101834.66;4134525;28;20077;-77
2023/04/18 06:37:36;;;;;;;71.07;39.45;;;7.90;99.90;;;7.28;100.00;101828.56;4127178;28;20062;-77
2023/04/18 06:39:37;;;;;;;72.00;39.28;;;8.00;99.90;;;7.35;100.00;101823.75;4122405;28;20506;-77
2023/04/18 06:41:37;;;;;;;75.07;41.08;;;8.00;99.90;;;7.41;100.00;101828.53;4125888;28;20034;-77
2023/04/18 06:43:38;;;;;;;72.13;40.63;;;8.10;99.90;;;7.46;100.00;101821.19;4130516;28;20031;-77
2023/04/18 06:45:39;;;;;;;67.28;40.20;;;8.10;99.90;;;7.53;100.00;101818.00;4134984;28;20038;-78
2023/04/18 06:47:40;;;;;;;67.00;37.53;;;8.20;99.90;;;7.75;100.00;101815.50;4135006;28;20517;-78
2023/04/18 06:49:41;;;;;;;69.47;36.95;;;8.30;99.90;;;8.02;100.00;101814.41;4137141;28;20018;-78
2023/04/18 06:51:42;;;;;;;67.35;39.72;;;8.60;99.90;;;8.29;100.00;101823.75;4129611;28;20034;-78
2023/04/18 06:53:44;;;;;;;70.47;39.35;;;8.80;99.90;;;8.52;100.00;101815.91;4137270;28;20023;-78
2023/04/18 06:55:45;;;;;;;62.47;35.92;;;9.00;99.90;;;8.59;100.00;101810.09;4122801;28;20506;-79
2023/04/18 06:57:46;;;;;;;64.80;38.10;;;9.20;99.90;;;8.79;100.00;101808.53;4125057;28;20030;-79
2023/04/18 06:59:47;;;;;;;58.63;35.65;;;9.30;99.90;;;8.80;100.00;101802.34;4128025;28;20086;-79
2023/04/18 07:01:49;;;;;;;57.03;36.55;;;9.40;99.90;;;8.84;100.00;101804.59;4138159;28;20026;-79
2023/04/18 07:03:50;;;;;;;59.25;36.55;;;9.50;99.90;;;8.81;100.00;101789.06;4136650;28;20514;-79
2023/04/18 07:05:51;;;;;;;59.45;35.85;;;9.50;99.90;;;8.95;100.00;101801.16;4135886;28;20061;-79
2023/04/18 07:07:52;;;;;;;58.78;35.60;;;9.50;99.90;;;8.96;100.00;101802.00;4137325;28;20030;-78
2023/04/18 07:09:53;;;;;;;62.08;37.65;;;9.60;99.90;;;8.96;100.00;101805.44;4130885;28;20023;-78
2023/04/18 07:11:54;;;;;;;65.03;38.13;;;9.60;99.90;;;9.10;100.00;101807.84;4137763;28;20023;-79
2023/04/18 07:13:55;;;;;;;63.92;36.83;;;9.70;99.90;;;9.19;100.00;101806.28;4137761;28;20025;-78
2023/04/18 07:15:56;;;;;;;58.08;35.83;;;9.80;99.90;;;9.07;100.00;101794.09;4132035;28;20058;-79
2023/04/18 07:17:57;;;;;;;62.47;35.95;;;9.90;99.90;;;9.21;100.00;101792.03;4129863;28;20062;-78
2023/04/18 07:19:58;;;;;;;60.88;36.72;;;9.90;99.90;;;9.29;100.00;101801.94;4133924;28;20041;-78
2023/04/18 07:22:00;;;;;;;58.67;36.97;;;10.00;99.90;;;9.47;100.00;101791.75;4135053;28;20026;-79
2023/04/18 07:24:00;;;;;;;60.42;36.45;;;10.10;99.90;;;9.44;100.00;101787.56;4121890;28;20049;-78
2023/04/18 07:26:04;;;;;;;59.47;37.13;;;10.20;99.90;;;9.47;100.00;101778.59;4136679;28;20018;-79
2023/04/18 07:28:05;;;;;;;59.53;37.20;;;10.10;99.90;;;9.43;100.00;101780.63;4133216;28;20398;-78
2023/04/18 07:30:06;;;;;;;61.70;38.08;;;10.10;99.90;;;9.36;100.00;101784.72;4137460;28;20049;-78
2023/04/18 07:32:07;;;;;;;61.15;37.45;;;10.10;99.90;;;9.33;100.00;101782.31;4136691;28;20031;-78
2023/04/18 07:34:08;;;;;;;60.22;37.30;;;10.00;99.90;;;9.19;100.00;101791.31;4129649;28;20102;-79
2023/04/18 07:36:09;;;;;;;58.80;36.47;;;10.00;99.90;;;9.12;100.00;101782.22;4124600;28;20031;-78
2023/04/18 07:38:11;;;;;;;56.78;34.53;;;9.90;99.90;;;9.09;100.00;101781.63;4123847;28;20109;-78
2023/04/18 07:40:13;;;;;;;68.50;36.58;;;9.80;99.90;;;9.00;100.00;101782.34;4128202;28;20026;-78
2023/04/18 07:42:14;;;;;;;57.20;35.70;;;9.80;99.90;;;9.08;100.00;101782.59;4136424;28;20034;-78
2023/04/18 07:44:15;;;;;;;58.22;35.75;;;9.80;99.90;;;9.14;100.00;101785.56;4125693;28;20042;-79
2023/04/18 07:46:15;;;;;;;62.85;37.70;;;9.80;99.90;;;9.10;100.00;101778.06;4136345;28;20541;-79
2023/04/18 07:48:16;;;;;;;64.53;37.40;;;9.80;99.90;;;9.16;100.00;101783.66;4120080;28;20023;-78
2023/04/18 07:50:17;;;;;;;59.75;36.08;;;9.80;99.90;;;9.27;100.00;101772.28;4137537;28;20038;-78
2023/04/18 07:52:18;;;;;;;60.10;38.22;;;9.90;99.90;;;9.34;100.00;101765.56;4137585;28;20035;-79
2023/04/18 07:54:19;;;;;;;60.15;36.38;;;10.00;99.90;;;9.55;100.00;101763.84;4136316;28;20037;-78
2023/04/18 07:56:20;;;;;;;58.83;37.45;;;10.10;99.90;;;9.74;100.00;101756.09;4131672;28;20034;-79
2023/04/18 07:58:21;;;;;;;57.65;36.35;;;10.30;99.90;;;9.96;100.00;101763.91;4129259;28;20034;-79
2023/04/18 08:00:22;;;;;;;59.30;36.25;;;10.40;99.90;;;10.11;100.00;101766.22;4132484;28;20022;-79
2023/04/18 08:02:23;;;;;;;59.35;35.83;;;10.60;99.90;;;10.33;100.00;101763.50;4120130;28;20039;-79
2023/04/18 08:04:24;;;;;;;55.00;36.22;;;10.80;99.90;;;10.32;100.00;101759.19;4137086;28;20027;-79
2023/04/18 08:06:25;;;;;;;58.00;36.60;;;10.90;99.90;;;10.40;100.00;101773.41;4126903;28;20481;-78
2023/04/18 08:08:26;;;;;;;62.67;38.03;;;11.00;99.90;;;10.40;100.00;101764.66;4133507;28;20061;-78
2023/04/18 08:10:27;;;;;;;56.10;35.83;;;11.00;99.90;;;10.62;100.00;101769.78;4136090;28;20070;-79
2023/04/18 08:12:28;;;;;;;59.22;36.28;;;11.20;99.90;;;10.57;100.00;101769.34;4127005;28;20022;-78
2023/04/18 08:14:29;;;;;;;54.17;36.28;;;11.20;99.90;;;10.73;100.00;101768.84;4136086;28;20033;-79
2023/04/18 08:16:30;;;;;;;57.90;36.17;;;11.30;99.90;;;10.87;100.00;101771.97;4124990;28;20022;-79
2023/04/18 08:18:31;;;;;;;51.15;34.35;;;11.50;99.90;;;10.79;100.00;101766.53;4120621;28;20027;-79